Terminal Aerodrome Forecast
Issued by NWS

Current Version | Previous Version | Text Only | Print | Product List | Glossary On
Versions: 1 2 3 4 5 6 7 8 9 10 11 12 13 14 15
000
FTUS42 TJSJ 282320
TAFIST
TAF
TIST 282320Z 2900/2924 10011KT P6SM FEW022 SCT050 BKN100
     FM290330 09008KT P6SM VCSH SCT022 SCT040 SCT120
     FM291600 12014KT P6SM FEW025 SCT050=

USA.gov is the U.S. government's official web portal to all federal, state and local government web resources and services.